GORO2: Illinois River, Gore, OK

Data processed at Sat May 19 2018 23:34


All information presented herein is the property of the government of the United States of America and may be revised or deleted at any time without prior notice.
Dissemination of this information without the expressed written consent of the Public Affairs Office, Tulsa District U.S. Army Corps of Engineers is strictly prohibited.
These data are gathered electronically and, as presented, have not undergone any form of quality control. These data are not guaranteed to be valid or correct.
Go to home page.
Go to station list.

Upstream stations:

Downstream station:
Previous Day
Next Day
Current Day
    
SHEF ID:       GORO2     Illinois River near Gore, OK
STATION TYPE:  

               PRECIP PRECIP(A)     STAGE  STAGE(2)  RIV-FLOW  WTR-TEMP   DIS-OXY   VOLTAGE  BAT-LOAD
                   in        in        ft        ft       cfs         F      mg/l      volt      volt
              Ccp-Rev   Ccp-Rev   Ccp-Rev   Ccp-Rev   Ccp-Rev   Ccp-Rev   Ccp-Rev   Ccp-Rev   Ccp-Rev
(US/Central)
05/17 00:00      0.00      ----      7.27      7.09       161     58.19      7.10      ----     12.71
05/17 01:00      0.00      ----      7.23      7.08       150     58.17      6.96      ----     12.65
05/17 02:00      0.00      ----      7.20      7.07       143     58.14      6.87      ----     12.65
05/17 03:00      0.00      ----      7.17      7.06       135     58.10      6.82      ----     12.65
05/17 04:00      0.00      ----      7.15      7.04       130     58.14      6.83      ----     12.65
05/17 05:00      0.00      ----      7.13      7.02       125     58.12      6.83      ----     12.65
05/17 06:00      0.00      ----      7.11      7.00       120     58.08      6.71      ----     12.65
05/17 07:00      0.00      ----      7.09      6.98       116     58.05      6.73      ----     12.65
05/17 08:00      0.00      ----      7.07      6.96       111     58.15      6.83      ----     12.65
05/17 09:00      0.00      ----      7.05      6.94       106     59.05      7.10      ----     12.71
05/17 10:00      0.00      ----      7.03      6.92       102     60.40      7.44      ----     12.77
05/17 11:00      0.00      ----      7.02      6.90        99     62.49      7.51      ----     13.07
05/17 12:00      0.00      ----     10.61      9.76      2628     60.28      8.28      ----      ----
05/17 13:00      0.00      ----     11.47      9.76      3757     57.81      8.95      ----      ----
05/17 14:00      0.00      ----     11.56      9.76      3885     57.51      9.08      ----      ----
05/17 15:00      0.00      ----     11.59      9.76      3928     57.07      9.14      ----      ----
05/17 16:00      0.00      ----     11.60      9.76      3943     56.91      9.13      ----      ----
05/17 17:00      0.00      ----     11.61      9.76      3957     56.70      9.11      ----      ----
05/17 18:00      0.00      ----     11.62      9.76      3972     56.46      9.08      ----      ----
05/17 19:00      0.00      ----     11.61      9.76      3957     56.25      9.07      ----      ----
05/17 20:00      0.00      ----      9.73      9.76      1681     56.44      8.94      ----      ----
05/17 21:00      0.00      ----      7.98      9.74       418     56.98      8.65      ----     12.77
05/17 22:00      0.00      ----      7.45      9.74       210     57.31      8.40      ----     12.71
05/17 23:00      0.00      ----      7.28      9.74       163     57.47      8.18      ----     12.71